Time;durP1;ratioP1;P1;durP2;ratioP2;P2;SDS_P1;SDS_P2;PMS_P1;PMS_P2;Temp;Humidity;BMP_temperature;BMP_pressure;BME280_temperature;BME280_humidity;BME280_pressure;Samples;Min_cycle;Max_cycle;Signal;HPM_P1;HPM_P2
2022/10/22 00:00:51;;;;;;;4.38;4.05;;;;;;;11.72;100.00;100943.41;6219552;23;20084;-77
2022/10/22 00:03:18;;;;;;;4.82;4.28;;;;;;;11.69;100.00;100944.28;6219411;23;20041;-77
2022/10/22 00:05:44;;;;;;;5.63;4.72;;;;;;;11.67;100.00;100935.97;6219264;23;20080;-77
2022/10/22 00:08:11;;;;;;;8.20;4.65;;;;;;;11.64;100.00;100945.59;6219261;23;20506;-77
2022/10/22 00:10:37;;;;;;;4.85;4.40;;;;;;;11.65;100.00;100943.69;6218775;23;20507;-77
2022/10/22 00:13:04;;;;;;;5.72;4.78;;;;;;;11.60;100.00;100945.00;6219696;23;20474;-77
2022/10/22 00:15:30;;;;;;;5.18;4.60;;;;;;;11.61;100.00;100946.47;6218952;23;20047;-77
2022/10/22 00:17:56;;;;;;;8.95;5.00;;;;;;;11.60;100.00;100950.34;6219594;23;20064;-77
2022/10/22 00:20:23;;;;;;;6.80;5.00;;;;;;;11.59;100.00;100943.53;6219241;23;20048;-77
2022/10/22 00:22:49;;;;;;;5.50;5.00;;;;;;;11.59;100.00;100959.53;6219662;23;20100;-77
2022/10/22 00:25:17;;;;;;;5.22;4.82;;;;;;;11.59;100.00;100948.13;6218815;23;20021;-77
2022/10/22 00:27:43;;;;;;;8.20;5.50;;;;;;;11.59;100.00;100956.13;6219186;23;20019;-77
2022/10/22 00:30:10;;;;;;;9.15;5.47;;;;;;;11.58;100.00;100958.06;6219171;23;20475;-77
2022/10/22 00:32:37;;;;;;;6.57;5.32;;;;;;;11.58;100.00;100952.72;6219112;23;20013;-77
2022/10/22 00:35:04;;;;;;;7.63;5.07;;;;;;;11.58;100.00;100960.72;6219455;23;20324;-77
2022/10/22 00:37:31;;;;;;;7.20;5.28;;;;;;;11.60;100.00;100954.94;6218995;23;20041;-77
2022/10/22 00:39:57;;;;;;;5.75;5.00;;;;;;;11.63;100.00;100956.72;6219272;23;20041;-77
2022/10/22 00:42:25;;;;;;;6.40;5.38;;;;;;;11.66;100.00;100963.84;6218902;23;20017;-77
2022/10/22 00:45:10;;;;;;;8.38;5.68;;;;;;;11.71;100.00;100965.91;6218220;23;20033;-77
2022/10/22 00:48:01;;;;;;;6.72;5.07;;;;;;;11.81;100.00;100967.47;6219111;23;20524;-77
2022/10/22 00:50:31;;;;;;;9.55;5.63;;;;;;;11.87;100.00;100965.69;6218759;23;20017;-76
2022/10/22 00:52:59;;;;;;;6.55;5.38;;;;;;;11.96;100.00;100964.97;6219445;23;20458;-77
2022/10/22 00:55:27;;;;;;;6.35;5.47;;;;;;;11.97;100.00;100961.88;6218196;23;20023;-77
2022/10/22 00:57:56;;;;;;;7.35;5.20;;;;;;;11.97;100.00;100963.78;6219326;23;20056;-77
2022/10/22 01:00:23;;;;;;;13.48;5.72;;;;;;;11.96;100.00;100970.31;6216684;23;20022;-77
2022/10/22 01:02:51;;;;;;;6.53;5.85;;;;;;;11.96;100.00;100965.72;6192756;23;20104;-77
2022/10/22 01:05:18;;;;;;;7.38;5.18;;;;;;;12.01;100.00;100964.34;6217482;23;20013;-78
2022/10/22 01:07:50;;;;;;;11.40;5.30;;;;;;;12.02;100.00;100966.59;6217927;23;20021;-78
2022/10/22 01:10:37;;;;;;;9.98;5.40;;;;;;;12.03;100.00;100965.41;6218288;23;20044;-78
2022/10/22 01:13:14;;;;;;;10.88;5.22;;;;;;;12.07;100.00;100970.59;6192816;23;20466;-77
2022/10/22 01:15:49;;;;;;;7.20;4.80;;;;;;;12.09;100.00;100973.56;6220108;23;20031;-78
2022/10/22 01:18:23;;;;;;;7.85;5.03;;;;;;;12.12;100.00;100963.94;6220089;23;20092;-78
2022/10/22 01:21:06;;;;;;;11.80;5.05;;;;;;;12.14;100.00;100966.91;6220755;23;20041;-78
2022/10/22 01:24:03;;;;;;;8.60;5.40;;;;;;;12.16;100.00;100967.94;6219493;23;20063;-78
2022/10/22 01:26:32;;;;;;;8.30;5.07;;;;;;;12.15;100.00;100961.13;6219905;23;20056;-78
2022/10/22 01:29:14;;;;;;;6.43;4.88;;;;;;;12.15;100.00;100958.44;6220403;23;20088;-78
2022/10/22 01:31:47;;;;;;;6.35;4.95;;;;;;;12.16;100.00;100967.19;6220323;23;20088;-78
2022/10/22 01:34:17;;;;;;;6.45;4.72;;;;;;;12.16;100.00;100969.88;6220102;23;20013;-78
2022/10/22 01:36:45;;;;;;;9.68;4.88;;;;;;;12.16;100.00;100967.94;6220197;23;20317;-78
2022/10/22 01:39:14;;;;;;;13.75;5.07;;;;;;;12.16;100.00;100965.28;6219321;23;20052;-78
2022/10/22 01:41:44;;;;;;;8.60;5.20;;;;;;;12.14;100.00;100967.63;6220154;23;20446;-78
2022/10/22 01:44:25;;;;;;;6.13;4.88;;;;;;;12.15;100.00;100969.13;6219927;23;20041;-78
2022/10/22 01:47:17;;;;;;;8.48;5.22;;;;;;;12.15;100.00;100971.78;6220366;23;20013;-78
2022/10/22 01:50:19;;;;;;;6.25;4.90;;;;;;;12.14;100.00;100972.25;6158882;23;20068;-78
2022/10/22 01:53:04;;;;;;;;;;;;;;;12.12;100.00;100971.94;6219915;23;20017;-78
2022/10/22 01:55:48;;;;;;;8.93;4.80;;;;;;;12.09;100.00;100970.16;6219783;23;19927;-77
2022/10/22 01:58:44;;;;;;;9.73;4.72;;;;;;;12.10;100.00;100972.38;6193567;23;20017;-77
2022/10/22 02:01:29;;;;;;;10.45;5.13;;;;;;;12.07;100.00;100962.59;6220060;23;20729;-77
2022/10/22 02:04:01;;;;;;;8.82;5.20;;;;;;;12.04;100.00;100963.47;6220283;23;20025;-77
2022/10/22 02:06:31;;;;;;;11.23;5.28;;;;;;;12.03;100.00;100967.34;6219566;23;20049;-77
2022/10/22 02:08:59;;;;;;;12.38;5.13;;;;;;;12.01;100.00;100949.09;6219609;23;20023;-77
2022/10/22 02:11:26;;;;;;;6.35;4.97;;;;;;;12.01;100.00;100959.03;6219579;23;20502;-77
2022/10/22 02:13:57;;;;;;;8.57;4.80;;;;;;;12.00;100.00;100960.22;6220272;23;20052;-77
2022/10/22 02:16:31;;;;;;;9.52;5.00;;;;;;;11.99;100.00;100959.50;6219463;23;20021;-77
2022/10/22 02:19:00;;;;;;;7.75;4.80;;;;;;;11.97;100.00;100951.19;6220354;23;20048;-77
2022/10/22 02:21:27;;;;;;;10.70;5.30;;;;;;;11.94;100.00;100954.75;6218527;23;20100;-77
2022/10/22 02:23:54;;;;;;;6.18;4.78;;;;;;;11.91;100.00;100944.22;6220167;23;20055;-77
2022/10/22 02:26:26;;;;;;;5.97;5.13;;;;;;;11.90;100.00;100942.72;6219847;23;20045;-77
2022/10/22 02:29:17;;;;;;;5.60;4.95;;;;;;;11.89;100.00;100942.00;6220301;23;20037;-76
2022/10/22 02:31:47;;;;;;;6.90;5.18;;;;;;;11.85;100.00;100944.06;6220028;23;20013;-76
2022/10/22 02:34:20;;;;;;;5.53;4.65;;;;;;;11.84;100.00;100942.56;6219828;23;20143;-77
2022/10/22 02:36:48;;;;;;;8.95;5.43;;;;;;;11.82;100.00;100950.28;6219625;23;20446;-77
2022/10/22 02:39:18;;;;;;;8.70;5.45;;;;;;;11.81;100.00;100956.06;6219652;23;20056;-77
2022/10/22 02:41:45;;;;;;;10.20;5.13;;;;;;;11.77;100.00;100942.84;6219757;23;20092;-77
2022/10/22 02:44:12;;;;;;;6.22;4.95;;;;;;;11.78;100.00;100951.59;6219302;23;20027;-77
2022/10/22 02:46:39;;;;;;;8.35;4.75;;;;;;;11.79;100.00;100955.75;6219655;23;20080;-76
2022/10/22 02:49:05;;;;;;;8.88;4.43;;;;;;;11.77;100.00;100953.53;6220136;23;20055;-77
2022/10/22 02:51:32;;;;;;;10.77;5.13;;;;;;;11.79;100.00;100956.50;6219164;23;20088;-77
2022/10/22 02:53:59;;;;;;;6.03;5.30;;;;;;;11.82;100.00;100960.94;6220148;23;20088;-77
2022/10/22 02:56:25;;;;;;;11.18;5.00;;;;;;;11.84;100.00;100957.84;6219361;23;20081;-77
2022/10/22 02:58:52;;;;;;;11.60;5.00;;;;;;;11.83;100.00;100961.69;6220202;23;20092;-77
2022/10/22 03:01:18;;;;;;;7.88;4.90;;;;;;;11.83;100.00;100965.09;6192804;23;20099;-77
2022/10/22 03:03:45;;;;;;;14.63;4.90;;;;;;;11.81;100.00;100962.13;6219819;23;20021;-77
2022/10/22 03:06:11;;;;;;;7.13;4.95;;;;;;;11.84;100.00;100973.84;6218891;23;20622;-77
2022/10/22 03:08:39;;;;;;;8.02;4.47;;;;;;;11.85;100.00;100968.06;6219649;23;20028;-77
2022/10/22 03:11:05;;;;;;;7.55;5.05;;;;;;;11.87;100.00;100968.38;6220068;23;20013;-77
2022/10/22 03:13:32;;;;;;;7.72;4.68;;;;;;;11.90;100.00;100969.41;6219847;23;20049;-77
2022/10/22 03:15:58;;;;;;;14.02;4.38;;;;;;;11.88;100.00;100963.78;6220075;23;20092;-77
2022/10/22 03:18:25;;;;;;;10.73;4.80;;;;;;;11.88;100.00;100964.50;6219193;23;20444;-77
2022/10/22 03:21:08;;;;;;;11.35;4.72;;;;;;;11.90;100.00;100969.41;6193017;23;20384;-77
2022/10/22 03:23:36;;;;;;;10.57;4.70;;;;;;;11.88;100.00;100971.78;6219761;23;20049;-77
2022/10/22 03:26:03;;;;;;;6.97;4.60;;;;;;;11.86;100.00;100966.88;6220201;23;20068;-77
2022/10/22 03:28:29;;;;;;;9.05;4.63;;;;;;;11.86;100.00;100972.22;6219201;23;20049;-77
2022/10/22 03:30:56;;;;;;;16.63;4.85;;;;;;;11.87;100.00;100970.28;6219734;23;20045;-77
2022/10/22 03:33:22;;;;;;;17.98;4.97;;;;;;;11.84;100.00;100969.25;6219386;23;20017;-78
2022/10/22 03:35:49;;;;;;;8.30;4.60;;;;;;;11.86;100.00;100982.13;6219065;23;20013;-76
2022/10/22 03:38:15;;;;;;;12.35;4.72;;;;;;;11.86;100.00;100966.13;6219667;23;20017;-76
2022/10/22 03:40:43;;;;;;;6.13;4.80;;;;;;;11.86;100.00;100971.47;6219577;23;20103;-76
2022/10/22 03:43:10;;;;;;;12.15;4.95;;;;;;;11.85;100.00;100967.31;6219524;23;20047;-76
2022/10/22 03:45:36;;;;;;;7.38;4.88;;;;;;;11.84;100.00;100969.25;6219143;23;20052;-76
2022/10/22 03:48:04;;;;;;;11.40;4.68;;;;;;;11.85;100.00;100972.66;6219861;23;20021;-76
2022/10/22 03:50:31;;;;;;;8.80;4.53;;;;;;;11.83;100.00;100978.44;6218529;23;20013;-79
2022/10/22 03:52:58;;;;;;;12.25;5.20;;;;;;;11.82;100.00;100987.63;6219828;23;20534;-76
2022/10/22 03:55:25;;;;;;;7.70;4.70;;;;;;;11.81;100.00;100978.13;6191986;23;20027;-76
2022/10/22 03:57:51;;;;;;;8.70;4.55;;;;;;;11.78;100.00;100983.59;6219845;23;20017;-76
2022/10/22 04:00:18;;;;;;;11.63;4.70;;;;;;;11.77;100.00;100987.44;6219365;23;20415;-77
2022/10/22 04:02:44;;;;;;;6.97;4.80;;;;;;;11.77;100.00;100987.44;6192155;23;20036;-76
2022/10/22 04:05:10;;;;;;;11.88;4.35;;;;;;;11.75;100.00;100987.88;6219179;23;20518;-76
2022/10/22 04:07:37;;;;;;;9.95;5.20;;;;;;;11.75;100.00;100992.44;6219150;23;20049;-76
2022/10/22 04:10:04;;;;;;;8.63;5.10;;;;;;;11.73;100.00;100995.56;6219665;23;20013;-76
2022/10/22 04:12:31;;;;;;;10.32;4.75;;;;;;;11.73;100.00;100986.81;6219014;23;20088;-76
2022/10/22 04:14:57;;;;;;;11.82;4.82;;;;;;;11.73;100.00;100984.16;6219692;23;20072;-77
2022/10/22 04:17:23;;;;;;;7.75;4.90;;;;;;;11.70;100.00;100986.50;6218559;23;20506;-76
2022/10/22 04:19:50;;;;;;;11.40;4.60;;;;;;;11.71;100.00;100987.25;6219555;23;20013;-77
2022/10/22 04:22:16;;;;;;;10.15;4.57;;;;;;;11.71;100.00;100989.91;6219146;23;20359;-76
2022/10/22 04:24:43;;;;;;;11.38;5.32;;;;;;;11.69;100.00;100989.63;6219036;23;20435;-76
2022/10/22 04:27:09;;;;;;;12.68;4.72;;;;;;;11.67;100.00;100992.72;6219297;23;20017;-77
2022/10/22 04:29:36;;;;;;;6.35;4.32;;;;;;;11.67;100.00;100998.06;6219184;23;20013;-77
2022/10/22 04:32:02;;;;;;;9.55;5.07;;;;;;;11.65;100.00;101003.09;6218683;23;20092;-77
2022/10/22 04:34:29;;;;;;;11.57;5.00;;;;;;;11.64;100.00;100998.94;6218604;23;20084;-76
2022/10/22 04:36:55;;;;;;;7.22;5.43;;;;;;;11.64;100.00;101000.84;6219464;23;20044;-77
2022/10/22 04:39:22;;;;;;;7.70;4.88;;;;;;;11.64;100.00;101001.59;6218745;23;20128;-77
2022/10/22 04:41:48;;;;;;;11.80;5.03;;;;;;;11.63;100.00;101008.13;6219191;23;20485;-77
2022/10/22 04:44:15;;;;;;;7.72;5.28;;;;;;;11.63;100.00;100996.72;6218997;23;20419;-76
2022/10/22 04:46:44;;;;;;;7.97;4.55;;;;;;;11.63;100.00;101004.72;6218474;23;20013;-77
2022/10/22 04:49:10;;;;;;;15.95;5.68;;;;;;;11.63;100.00;100999.38;6219055;23;20041;-76
2022/10/22 04:51:37;;;;;;;8.52;4.70;;;;;;;11.62;100.00;101006.63;6218923;23;20053;-77
2022/10/22 04:54:04;;;;;;;9.70;5.22;;;;;;;11.63;100.00;101000.13;6219395;23;20080;-76
2022/10/22 04:56:31;;;;;;;5.90;4.60;;;;;;;11.63;100.00;101010.03;6218793;23;20017;-76
2022/10/22 04:59:03;;;;;;;11.65;5.53;;;;;;;11.64;100.00;101011.53;6219404;23;20024;-77
2022/10/22 05:01:32;;;;;;;9.25;5.20;;;;;;;11.64;100.00;101016.88;6218077;23;20506;-76
2022/10/22 05:04:06;;;;;;;8.85;4.95;;;;;;;11.64;100.00;101014.94;6219363;23;20092;-76
2022/10/22 05:06:35;;;;;;;5.55;4.70;;;;;;;11.64;100.00;101014.19;6218970;23;20435;-76
2022/10/22 05:09:05;;;;;;;5.28;4.53;;;;;;;11.62;100.00;101017.28;6219074;23;20112;-76
2022/10/22 05:11:37;;;;;;;10.95;5.15;;;;;;;11.63;100.00;101016.13;6219072;23;20021;-76
2022/10/22 05:14:06;;;;;;;8.43;4.60;;;;;;;11.61;100.00;101021.16;6219580;23;20017;-76
2022/10/22 05:16:33;;;;;;;8.25;4.65;;;;;;;11.60;100.00;101014.31;6218313;23;20451;-76
2022/10/22 05:19:01;;;;;;;11.85;4.90;;;;;;;11.59;100.00;101018.19;6218981;23;20087;-76
2022/10/22 05:21:27;;;;;;;11.55;5.05;;;;;;;11.58;100.00;101021.31;6218306;23;20060;-76
2022/10/22 05:23:58;;;;;;;13.55;4.63;;;;;;;11.57;100.00;101023.22;6219123;23;20017;-76
2022/10/22 05:26:26;;;;;;;9.50;4.45;;;;;;;11.54;100.00;101018.03;6218764;23;20335;-77
2022/10/22 05:28:52;;;;;;;13.38;4.95;;;;;;;11.52;100.00;101018.47;6218868;23;20092;-76
2022/10/22 05:31:19;;;;;;;9.75;4.47;;;;;;;11.51;100.00;101027.66;6218059;23;20430;-77
2022/10/22 05:33:46;;;;;;;6.53;4.40;;;;;;;11.47;100.00;101026.28;6218560;23;20020;-76
2022/10/22 05:36:16;;;;;;;6.97;4.25;;;;;;;11.45;100.00;101021.41;6218564;23;20044;-77
2022/10/22 05:38:43;;;;;;;11.18;4.60;;;;;;;11.45;100.00;101024.06;6218544;23;20502;-77
2022/10/22 05:41:14;;;;;;;10.90;4.53;;;;;;;11.45;100.00;101029.41;6218423;23;20400;-76
2022/10/22 05:43:41;;;;;;;13.68;4.50;;;;;;;11.44;100.00;101027.91;6218582;23;20478;-77
2022/10/22 05:46:13;;;;;;;12.02;4.75;;;;;;;11.43;100.00;101031.00;6217789;23;20093;-77
2022/10/22 05:48:55;;;;;;;9.63;4.13;;;;;;;11.41;100.00;101030.69;6218771;23;20024;-76
2022/10/22 05:51:23;;;;;;;11.07;4.75;;;;;;;11.39;100.00;101036.47;6218655;23;20041;-77
2022/10/22 05:53:52;;;;;;;6.28;4.55;;;;;;;11.37;100.00;101041.50;6218881;23;20048;-76
2022/10/22 05:56:19;;;;;;;10.13;4.50;;;;;;;11.36;100.00;101042.66;6218574;23;20014;-76
2022/10/22 05:58:46;;;;;;;7.50;4.60;;;;;;;11.32;100.00;101039.41;6217961;23;20502;-76
2022/10/22 06:01:17;;;;;;;8.00;4.63;;;;;;;11.33;100.00;101038.22;6220006;23;20049;-77
2022/10/22 06:03:44;;;;;;;8.57;4.60;;;;;;;11.35;100.00;101046.53;6220141;23;20297;-77
2022/10/22 06:06:21;;;;;;;10.80;4.40;;;;;;;11.39;100.00;101047.13;6219974;23;20040;-77
2022/10/22 06:08:49;;;;;;;12.07;4.53;;;;;;;11.40;100.00;101056.63;6193090;23;20487;-77
2022/10/22 06:11:17;;;;;;;19.58;5.20;;;;;;;11.42;100.00;101056.19;6220087;23;20045;-77
2022/10/22 06:13:45;;;;;;;10.38;4.15;;;;;;;11.41;100.00;101062.69;6219193;23;20013;-77
2022/10/22 06:16:11;;;;;;;6.25;4.68;;;;;;;11.38;100.00;101058.97;6193104;23;20020;-77
2022/10/22 06:18:38;;;;;;;5.80;3.88;;;;;;;11.38;100.00;101063.56;6219403;23;20016;-77
2022/10/22 06:21:06;;;;;;;4.80;4.00;;;;;;;11.35;100.00;101068.59;6220050;23;20093;-77
2022/10/22 06:23:33;;;;;;;13.70;4.35;;;;;;;11.36;100.00;101077.31;6219936;23;20025;-77
2022/10/22 06:26:00;;;;;;;8.10;4.55;;;;;;;11.33;100.00;101075.53;6220902;23;20499;-79
2022/10/22 06:28:27;;;;;;;7.80;4.10;;;;;;;11.33;100.00;101076.28;6219813;23;20104;-77
2022/10/22 06:30:56;;;;;;;12.50;3.88;;;;;;;11.32;100.00;101079.38;6220839;23;20438;-79
2022/10/22 06:33:23;;;;;;;16.55;4.40;;;;;;;11.33;100.00;101084.28;6219877;23;20096;-77
2022/10/22 06:35:49;;;;;;;6.55;4.38;;;;;;;11.34;100.00;101093.00;6219676;23;20020;-80
2022/10/22 06:38:16;;;;;;;8.30;3.97;;;;;;;11.33;100.00;101097.59;6220085;23;20044;-78
2022/10/22 06:40:43;;;;;;;12.05;4.40;;;;;;;11.30;100.00;101103.03;6219743;23;20017;-77
2022/10/22 06:43:13;;;;;;;12.93;4.05;;;;;;;11.29;100.00;101098.91;6220453;23;20037;-79
2022/10/22 06:45:40;;;;;;;8.18;4.18;;;;;;;11.30;100.00;101105.72;6220003;23;20021;-78
2022/10/22 06:48:06;;;;;;;5.88;4.05;;;;;;;11.30;100.00;101111.78;6220723;23;20097;-78
2022/10/22 06:50:34;;;;;;;11.35;4.10;;;;;;;11.31;100.00;101115.19;6220461;23;20095;-80
2022/10/22 06:53:00;;;;;;;10.13;3.63;;;;;;;11.31;100.00;101118.59;6220858;23;20092;-78
2022/10/22 06:55:27;;;;;;;9.45;3.53;;;;;;;11.33;100.00;101129.56;6220381;23;20470;-78
2022/10/22 06:57:54;;;;;;;7.07;3.60;;;;;;;11.36;100.00;101127.97;6220314;23;20017;-81
2022/10/22 07:00:21;;;;;;;8.95;3.55;;;;;;;11.39;100.00;101132.44;6220744;23;20470;-78
2022/10/22 07:02:51;;;;;;;10.38;3.88;;;;;;;11.43;100.00;101133.06;6220120;23;20020;-80
2022/10/22 07:05:24;;;;;;;10.52;3.72;;;;;;;11.46;100.00;101131.44;6220714;23;20041;-79
2022/10/22 07:07:50;;;;;;;9.05;4.03;;;;;;;11.49;100.00;101133.22;6220490;23;20130;-76
2022/10/22 07:10:17;;;;;;;4.25;3.67;;;;;;;11.52;100.00;101130.44;6220246;23;20100;-82
2022/10/22 07:12:43;;;;;;;10.45;3.63;;;;;;;11.59;100.00;101145.44;6219424;23;20088;-78
2022/10/22 07:15:10;;;;;;;6.35;3.53;;;;;;;11.64;100.00;101137.59;6220451;23;20461;-78
2022/10/22 07:17:36;;;;;;;8.75;4.55;;;;;;;11.70;100.00;101145.78;6220013;23;20014;-77
2022/10/22 07:20:04;;;;;;;9.35;3.78;;;;;;;11.75;100.00;101147.88;6220707;23;20056;-77
2022/10/22 07:22:30;;;;;;;9.68;3.38;;;;;;;11.80;100.00;101146.59;6220280;23;20017;-77
2022/10/22 07:24:56;;;;;;;6.00;3.28;;;;;;;11.82;100.00;101153.00;6220690;23;20017;-77
2022/10/22 07:27:23;;;;;;;7.47;3.40;;;;;;;11.87;100.00;101149.75;6220101;23;20451;-78
2022/10/22 07:29:49;;;;;;;11.05;3.90;;;;;;;11.93;100.00;101156.00;6193917;23;20021;-88
2022/10/22 07:32:16;;;;;;;10.57;3.58;;;;;;;11.96;100.00;101151.72;6220615;23;20503;-77
2022/10/22 07:34:48;;;;;;;8.10;3.53;;;;;;;12.03;100.00;101162.09;6193601;23;20078;-78
2022/10/22 07:37:14;;;;;;;12.95;3.60;;;;;;;12.12;100.00;101170.16;6220289;23;20047;-78
2022/10/22 07:39:41;;;;;;;5.72;3.00;;;;;;;12.20;100.00;101166.03;6219962;23;20111;-78
2022/10/22 07:42:07;;;;;;;5.97;2.95;;;;;;;12.27;100.00;101176.44;6220356;23;20455;-79
2022/10/22 07:44:33;;;;;;;9.20;3.17;;;;;;;12.33;100.00;101174.69;6219184;23;20017;-78
2022/10/22 07:47:00;;;;;;;9.02;3.08;;;;;;;12.41;100.00;101177.06;6220534;23;20048;-78
2022/10/22 07:49:26;;;;;;;8.27;3.17;;;;;;;12.52;100.00;101182.75;6219797;23;20477;-78
2022/10/22 07:51:53;;;;;;;7.72;2.88;;;;;;;12.69;100.00;101186.66;6220504;23;20510;-78
2022/10/22 07:54:19;;;;;;;6.55;3.20;;;;;;;12.75;100.00;101190.22;6219814;23;20089;-78
2022/10/22 07:56:46;;;;;;;15.52;3.42;;;;;;;12.80;100.00;101191.53;6192174;23;20033;-78
2022/10/22 07:59:12;;;;;;;14.85;3.10;;;;;;;12.82;100.00;101197.19;6219497;23;20447;-77
2022/10/22 08:01:39;;;;;;;7.82;2.85;;;;;;;12.87;100.00;101197.34;6218176;23;20024;-77
2022/10/22 08:04:07;;;;;;;7.00;2.80;;;;;;;12.92;100.00;101196.00;6219971;23;20020;-77
2022/10/22 08:06:34;;;;;;;10.25;2.75;;;;;;;12.97;100.00;101198.84;6219798;23;20013;-79
2022/10/22 08:09:01;;;;;;;6.70;2.90;;;;;;;13.02;100.00;101200.19;6220358;23;20045;-78
2022/10/22 08:11:28;;;;;;;6.60;2.70;;;;;;;13.06;100.00;101205.38;6219730;23;20047;-77
2022/10/22 08:13:54;;;;;;;7.22;2.85;;;;;;;13.09;100.00;101199.16;6220725;23;20045;-77
2022/10/22 08:16:21;;;;;;;13.13;2.70;;;;;;;13.16;100.00;101206.91;6193627;23;20017;-78
2022/10/22 08:18:47;;;;;;;6.35;2.55;;;;;;;13.24;100.00;101205.41;6220134;23;20494;-78
2022/10/22 08:21:13;;;;;;;7.63;2.70;;;;;;;13.28;100.00;101220.09;6220297;23;20080;-78
2022/10/22 08:23:40;;;;;;;7.05;2.60;;;;;;;13.33;100.00;101221.44;6219195;23;20518;-78
2022/10/22 08:26:06;;;;;;;7.10;2.55;;;;;;;13.34;100.00;101222.94;6220348;23;20041;-78
2022/10/22 08:28:35;;;;;;;8.80;2.58;;;;;;;13.37;100.00;101227.38;6219765;23;20021;-78
2022/10/22 08:31:04;;;;;;;6.05;2.83;;;;;;;13.40;100.00;101223.81;6220024;23;20048;-78
2022/10/22 08:33:31;;;;;;;5.90;2.30;;;;;;;13.41;100.00;101230.66;6219887;23;20092;-78
2022/10/22 08:35:57;;;;;;;9.70;2.80;;;;;;;13.45;100.00;101228.59;6220299;23;20017;-77
2022/10/22 08:38:23;;;;;;;13.25;2.53;;;;;;;13.48;100.00;101229.63;6219213;23;20096;-77
2022/10/22 08:40:55;;;;;;;8.10;2.45;;;;;;;13.53;100.00;101235.13;6219941;23;20105;-77
2022/10/22 08:43:36;;;;;;;13.93;2.80;;;;;;;13.59;100.00;101237.94;6220306;23;20021;-78
2022/10/22 08:46:32;;;;;;;11.05;2.80;;;;;;;13.65;100.00;101231.50;6219790;23;20503;-77
2022/10/22 08:49:01;;;;;;;8.35;2.33;;;;;;;13.73;100.00;101241.91;6220074;23;20048;-78
2022/10/22 08:51:35;;;;;;;10.40;2.88;;;;;;;13.78;100.00;101250.09;6192471;23;20119;-78
2022/10/22 08:54:29;;;;;;;12.85;2.15;;;;;;;13.82;100.00;101252.59;6219509;23;20035;-78
2022/10/22 08:57:19;;;;;;;8.73;2.63;;;;;;;13.83;100.00;101251.41;6220082;23;20089;-78
2022/10/22 08:59:51;;;;;;;5.38;2.25;;;;;;;13.85;100.00;101263.16;6192436;23;20060;-78
2022/10/22 09:02:47;;;;;;;8.68;2.40;;;;;;;13.86;100.00;101264.66;6219943;23;20044;-78
2022/10/22 09:05:37;;;;;;;13.23;2.55;;;;;;;13.89;100.00;101269.09;6219848;23;20443;-78
2022/10/22 09:08:08;;;;;;;9.65;2.40;;;;;;;13.92;100.00;101273.56;6219175;23;20017;-79
2022/10/22 09:10:37;;;;;;;7.05;2.20;;;;;;;13.98;100.00;101271.75;6219473;23;20017;-77
2022/10/22 09:13:04;;;;;;;14.30;2.78;;;;;;;14.02;100.00;101277.69;6220059;23;20048;-78
2022/10/22 09:15:30;;;;;;;9.35;2.53;;;;;;;14.10;100.00;101280.78;6219830;23;20049;-78
2022/10/22 09:18:29;;;;;;;6.07;2.30;;;;;;;14.20;100.00;101282.25;6219864;23;20043;-79
2022/10/22 09:21:01;;;;;;;10.20;2.50;;;;;;;14.28;100.00;101278.06;6219655;23;20375;-80
2022/10/22 09:23:34;;;;;;;8.75;2.70;;;;;;;14.35;100.00;101293.06;6219005;23;20478;-80
2022/10/22 09:26:01;;;;;;;11.40;3.10;;;;;;;14.41;100.00;101293.94;6219885;23;20080;-79
2022/10/22 09:28:28;;;;;;;7.50;2.83;;;;;;;14.52;100.00;101290.78;6219345;23;20016;-87
2022/10/22 09:30:54;;;;;;;6.65;2.40;;;;;;;14.62;99.99;101298.34;6220963;23;20042;-86
2022/10/22 09:33:27;;;;;;;6.68;2.35;;;;;;;14.77;100.00;101298.44;6193137;23;20021;-79
2022/10/22 09:35:57;;;;;;;6.50;2.33;;;;;;;14.97;100.00;101300.53;6194337;23;20072;-81
2022/10/22 09:38:26;;;;;;;11.63;2.67;;;;;;;15.09;98.48;101312.25;6221228;23;20092;-78
2022/10/22 09:40:55;;;;;;;8.30;3.00;;;;;;;15.12;98.37;101300.63;6220917;23;20162;-80
2022/10/22 09:43:22;;;;;;;10.25;2.28;;;;;;;15.10;97.96;101305.69;6221098;23;20406;-80
2022/10/22 09:46:04;;;;;;;11.77;3.22;;;;;;;15.05;97.84;101309.00;6220458;23;20483;-80
2022/10/22 09:48:38;;;;;;;15.63;3.25;;;;;;;15.06;98.33;101307.78;6220510;23;20119;-80
2022/10/22 09:51:04;;;;;;;10.35;2.38;;;;;;;15.20;97.63;101315.88;6193216;23;20492;-78
2022/10/22 09:53:37;;;;;;;5.97;2.53;;;;;;;15.34;96.24;101314.44;6220580;23;20013;-79
2022/10/22 09:56:24;;;;;;;8.32;2.40;;;;;;;15.39;96.94;101321.88;6221240;23;20044;-84
2022/10/22 09:58:51;;;;;;;12.15;2.92;;;;;;;15.44;97.21;101320.50;6221416;23;20084;-87
2022/10/22 10:01:24;;;;;;;7.40;2.42;;;;;;;15.46;95.35;101324.22;6221497;23;20589;-81
2022/10/22 10:03:50;;;;;;;12.73;2.15;;;;;;;15.45;95.77;101328.09;6221044;23;20013;-81
2022/10/22 10:06:22;;;;;;;6.78;2.78;;;;;;;15.49;95.57;101341.34;6220239;23;20052;-79
2022/10/22 10:08:49;;;;;;;7.57;2.35;;;;;;;15.46;95.34;101326.88;6220945;23;20021;-79
2022/10/22 10:11:24;;;;;;;13.27;2.53;;;;;;;15.52;94.77;101340.41;6222665;23;20099;-85
2022/10/22 10:14:11;;;;;;;7.53;2.72;;;;;;;15.61;94.78;101345.72;6196007;23;20017;-83
2022/10/22 10:16:53;;;;;;;13.77;2.67;;;;;;;15.82;94.57;101346.59;6220766;23;20013;-82
2022/10/22 10:19:39;;;;;;;5.15;2.10;;;;;;;16.06;94.21;101339.22;6194499;23;20020;-82
2022/10/22 10:22:28;;;;;;;6.00;2.60;;;;;;;16.24;92.07;101346.34;6221142;23;20017;-82
2022/10/22 10:25:09;;;;;;;4.32;2.13;;;;;;;16.21;92.82;101353.41;6221072;23;20097;-82
2022/10/22 10:28:00;;;;;;;7.68;2.42;;;;;;;16.21;91.91;101361.47;6220871;23;20347;-81
2022/10/22 10:30:26;;;;;;;9.73;2.08;;;;;;;16.21;91.24;101366.09;6193633;23;20029;-81
2022/10/22 10:33:09;;;;;;;8.15;2.10;;;;;;;16.24;90.64;101362.47;6220927;23;20037;-82
2022/10/22 10:35:47;;;;;;;6.95;2.40;;;;;;;16.25;89.76;101363.97;6193436;23;20638;-82
2022/10/22 10:38:35;;;;;;;7.75;2.17;;;;;;;16.28;89.48;101366.47;6194346;23;20017;-83
2022/10/22 10:41:22;;;;;;;141.80;102.38;;;;;;;16.31;89.20;101372.84;6220591;23;20013;-82
2022/10/22 10:44:14;;;;;;;15.48;5.82;;;;;;;16.33;88.50;101373.13;6220912;23;20185;-83
2022/10/22 10:46:51;;;;;;;6.25;3.00;;;;;;;16.37;87.89;101368.31;6220364;23;20091;-82
2022/10/22 10:49:24;;;;;;;10.70;2.53;;;;;;;16.41;87.80;101382.28;6193432;23;20044;-81
2022/10/22 10:52:11;;;;;;;7.43;2.30;;;;;;;16.47;87.14;101377.75;6220681;23;20403;-81
2022/10/22 10:54:49;;;;;;;9.77;2.38;;;;;;;16.54;87.75;101379.31;6220324;23;20458;-82
2022/10/22 10:57:33;;;;;;;11.95;2.50;;;;;;;16.52;86.05;101382.47;6220729;23;20050;-82
2022/10/22 11:00:10;;;;;;;8.73;2.10;;;;;;;16.55;86.16;101375.41;6220649;23;20470;-82
2022/10/22 11:03:02;;;;;;;5.30;2.10;;;;;;;16.55;84.73;101386.16;6193909;23;20029;-81
2022/10/22 11:05:53;;;;;;;7.20;1.98;;;;;;;16.59;86.16;101387.47;6219972;23;20089;-81
2022/10/22 11:09:06;;;;;;;7.80;2.20;;;;;;;16.61;86.36;101385.06;6220875;23;20473;-81
2022/10/22 11:11:40;;;;;;;13.82;2.03;;;;;;;16.62;86.66;101388.50;6137682;23;20363;-81
2022/10/22 11:14:20;;;;;;;4.65;1.80;;;;;;;16.63;85.36;101384.59;6220690;23;20064;-80
2022/10/22 11:17:15;;;;;;;8.25;1.58;;;;;;;16.65;85.70;101388.31;6220638;23;20021;-79
2022/10/22 11:19:57;;;;;;;5.78;1.88;;;;;;;16.73;85.75;101399.44;6193094;23;20092;-81
2022/10/22 11:22:40;;;;;;;11.88;2.00;;;;;;;16.82;84.12;101393.94;6220391;23;20017;-79
2022/10/22 11:25:42;;;;;;;7.80;1.75;;;;;;;16.90;84.97;101397.72;6220328;23;20233;-81
2022/10/22 11:28:16;;;;;;;9.15;2.10;;;;;;;16.90;82.94;101411.19;6220678;23;20021;-79
2022/10/22 11:30:48;;;;;;;8.45;1.77;;;;;;;17.01;83.62;101407.91;6219888;23;20044;-80
2022/10/22 11:33:20;;;;;;;3.70;1.73;;;;;;;17.07;82.81;101408.00;6219899;23;20013;-80
2022/10/22 11:35:48;;;;;;;8.63;2.03;;;;;;;17.04;82.59;101406.25;6193328;23;20506;-82